createdAt,value
2019-05-07T00:02:13.456Z,13.33
2019-05-07T00:04:42.782Z,13.57
2019-05-07T00:07:13.009Z,15.17
2019-05-07T00:09:43.057Z,14.60
2019-05-07T00:12:12.567Z,14.43
2019-05-07T00:14:42.970Z,13.40
2019-05-07T00:17:13.056Z,12.90
2019-05-07T00:19:43.157Z,11.40
2019-05-07T00:22:12.549Z,17.13
2019-05-07T00:24:42.659Z,16.83
2019-05-07T00:27:13.133Z,17.00
2019-05-07T00:29:42.950Z,16.83
2019-05-07T00:32:12.245Z,18.63
2019-05-07T00:34:42.651Z,15.10
2019-05-07T00:37:13.166Z,15.60
2019-05-07T00:39:46.294Z,12.87
2019-05-07T00:42:16.483Z,13.93
2019-05-07T00:45:13.191Z,15.07
2019-05-07T00:47:29.175Z,14.87
2019-05-07T00:49:59.430Z,15.97
2019-05-07T00:52:28.142Z,13.30
2019-05-07T00:54:56.772Z,14.00
2019-05-07T00:57:25.315Z,12.73
2019-05-07T00:59:53.890Z,13.53
2019-05-07T01:02:23.255Z,16.77
2019-05-07T01:04:53.161Z,14.40
2019-05-07T01:07:22.898Z,13.83
2019-05-07T01:09:52.388Z,15.13
2019-05-07T01:12:22.270Z,13.97
2019-05-07T01:14:52.895Z,13.00
2019-05-07T01:17:22.713Z,13.30
2019-05-07T01:19:53.232Z,14.13
2019-05-07T01:22:22.329Z,16.80
2019-05-07T01:24:52.539Z,15.00
2019-05-07T01:27:22.624Z,11.40
2019-05-07T01:29:52.854Z,15.03
2019-05-07T01:32:26.378Z,14.30
2019-05-07T01:34:59.102Z,17.53
2019-05-07T01:37:27.580Z,13.43
2019-05-07T01:39:56.146Z,14.23
2019-05-07T01:42:24.697Z,14.50
2019-05-07T01:44:53.383Z,15.90
2019-05-07T01:47:23.742Z,16.30
2019-05-07T01:49:52.422Z,17.87
2019-05-07T01:52:22.711Z,14.77
2019-05-07T01:54:52.294Z,13.93
2019-05-07T01:57:22.978Z,13.93
2019-05-07T01:59:52.749Z,15.63
2019-05-07T02:02:23.214Z,14.17
2019-05-07T02:04:56.533Z,13.97
2019-05-07T02:07:29.390Z,13.73
2019-05-07T02:09:59.577Z,11.33
2019-05-07T02:12:31.760Z,12.07
2019-05-07T02:15:02.464Z,13.30
2019-05-07T02:17:32.227Z,14.73
2019-05-07T02:20:02.688Z,13.20
2019-05-07T02:22:32.033Z,15.83
2019-05-07T02:25:03.097Z,14.07
2019-05-07T02:27:32.888Z,11.93
2019-05-07T02:30:04.153Z,11.77
2019-05-07T02:32:33.480Z,13.37
2019-05-07T02:35:03.982Z,12.23
2019-05-07T02:37:46.491Z,11.80
2019-05-07T02:40:15.413Z,10.93
2019-05-07T02:42:44.449Z,18.57
2019-05-07T02:45:33.388Z,11.60
2019-05-07T02:48:03.441Z,10.17
2019-05-07T02:50:39.710Z,11.67
2019-05-07T02:53:25.097Z,13.93
2019-05-07T02:55:55.419Z,14.87
2019-05-07T02:58:24.334Z,13.33
2019-05-07T03:00:53.420Z,10.23
2019-05-07T03:03:24.734Z,12.70
2019-05-07T03:05:53.910Z,12.63
2019-05-07T03:08:26.978Z,14.13
2019-05-07T03:10:53.331Z,16.67
2019-05-07T03:13:23.802Z,11.97
2019-05-07T03:15:53.978Z,10.17
2019-05-07T03:18:23.548Z,12.57
2019-05-07T03:20:59.683Z,11.07
2019-05-07T03:23:44.917Z,14.10
2019-05-07T03:26:17.959Z,15.83
2019-05-07T03:28:53.569Z,10.73
2019-05-07T03:31:26.758Z,13.80
2019-05-07T03:33:57.124Z,10.37
2019-05-07T03:36:47.457Z,11.50
2019-05-07T03:39:15.557Z,13.63
2019-05-07T03:41:44.714Z,15.70
2019-05-07T03:44:23.598Z,11.57
2019-05-07T03:47:01.139Z,12.43
2019-05-07T03:49:27.587Z,10.37
2019-05-07T03:51:56.990Z,11.93
2019-05-07T03:54:25.837Z,14.23
2019-05-07T03:56:54.508Z,10.80
2019-05-07T03:59:23.375Z,16.23
2019-05-07T04:01:53.854Z,10.83
2019-05-07T04:04:23.142Z,11.40
2019-05-07T04:06:53.795Z,13.33
2019-05-07T04:09:24.134Z,12.40
2019-05-07T04:11:52.986Z,15.97
2019-05-07T04:14:23.156Z,12.00
2019-05-07T04:16:53.558Z,16.73
2019-05-07T04:19:23.518Z,14.80
2019-05-07T04:21:53.368Z,11.80
2019-05-07T04:24:23.785Z,11.17
2019-05-07T04:26:53.991Z,13.20
2019-05-07T04:29:23.201Z,11.10
2019-05-07T04:31:53.351Z,12.33
2019-05-07T04:34:39.772Z,11.80
2019-05-07T04:37:08.325Z,12.83
2019-05-07T04:39:36.938Z,12.90
2019-05-07T04:42:05.568Z,14.20
2019-05-07T04:44:34.124Z,12.53
2019-05-07T04:47:04.360Z,11.93
2019-05-07T04:49:33.376Z,11.83
2019-05-07T04:52:06.680Z,10.43
2019-05-07T04:54:35.255Z,12.50
2019-05-07T04:57:05.585Z,10.60
2019-05-07T04:59:34.123Z,11.87
2019-05-07T05:02:13.695Z,12.03
2019-05-07T05:04:43.891Z,12.73
2019-05-07T05:07:13.346Z,9.93
2019-05-07T05:09:42.605Z,14.20
2019-05-07T05:12:13.177Z,13.73
2019-05-07T05:14:43.481Z,10.20
2019-05-07T05:17:12.960Z,12.40
2019-05-07T05:19:43.730Z,10.73
2019-05-07T05:22:13.695Z,13.60
2019-05-07T05:24:44.023Z,12.73
2019-05-07T05:27:12.642Z,12.13
2019-05-07T05:29:42.944Z,12.93
2019-05-07T05:32:12.061Z,12.63
2019-05-07T05:34:42.605Z,14.37
2019-05-07T05:37:14.026Z,10.47
2019-05-07T05:39:42.858Z,10.37
2019-05-07T05:42:13.037Z,10.33
2019-05-07T05:44:41.775Z,9.97
2019-05-07T05:47:11.947Z,7.10
2019-05-07T05:49:42.755Z,10.13
2019-05-07T05:52:15.227Z,12.10
2019-05-07T05:54:48.206Z,13.27
2019-05-07T05:57:22.870Z,8.97
2019-05-07T05:59:55.243Z,6.27
2019-05-07T06:02:39.574Z,11.03
2019-05-07T06:05:16.066Z,10.73
2019-05-07T06:07:49.222Z,13.27
2019-05-07T06:10:19.557Z,8.73
2019-05-07T06:12:49.746Z,8.10
2019-05-07T06:15:25.729Z,7.27
2019-05-07T06:17:55.910Z,11.50
2019-05-07T06:20:42.958Z,12.53
2019-05-07T06:23:19.229Z,9.23
2019-05-07T06:25:48.687Z,10.27
2019-05-07T06:28:17.402Z,10.43
2019-05-07T06:30:47.246Z,10.00
2019-05-07T06:33:15.790Z,8.43
2019-05-07T06:35:44.361Z,10.03
2019-05-07T06:38:14.006Z,14.67
2019-05-07T06:40:44.331Z,12.43
2019-05-07T06:43:23.786Z,12.13
2019-05-07T06:45:53.889Z,10.17
2019-05-07T06:48:37.727Z,9.50
2019-05-07T06:50:59.510Z,7.33
2019-05-07T06:53:30.101Z,9.63
2019-05-07T06:56:02.645Z,12.43
2019-05-07T06:58:35.083Z,7.90
2019-05-07T07:01:22.771Z,8.30
2019-05-07T07:04:04.991Z,12.37
2019-05-07T07:06:35.321Z,10.00
2019-05-07T07:09:13.273Z,14.57
2019-05-07T07:11:43.559Z,10.33
2019-05-07T07:14:12.146Z,9.00
2019-05-07T07:16:42.088Z,10.50
2019-05-07T07:19:12.434Z,9.77
2019-05-07T07:21:42.162Z,8.63
2019-05-07T07:24:12.711Z,10.40
2019-05-07T07:27:02.434Z,8.97
2019-05-07T07:29:34.807Z,9.03
2019-05-07T07:32:07.818Z,8.63
2019-05-07T07:34:38.150Z,11.13
2019-05-07T07:37:15.839Z,9.27
2019-05-07T07:39:44.620Z,6.77
2019-05-07T07:42:13.170Z,12.03
2019-05-07T07:44:42.561Z,6.23
2019-05-07T07:47:12.937Z,12.00
2019-05-07T07:49:42.045Z,12.80
2019-05-07T07:52:12.209Z,9.63
2019-05-07T07:54:42.864Z,11.47
2019-05-07T07:57:12.846Z,9.70
2019-05-07T07:59:45.624Z,9.73
2019-05-07T08:02:15.952Z,9.60
2019-05-07T08:04:44.564Z,6.97
2019-05-07T08:07:13.309Z,10.83
2019-05-07T08:09:42.906Z,8.43
2019-05-07T08:12:12.752Z,11.03
2019-05-07T08:14:42.959Z,8.33
2019-05-07T08:17:12.975Z,8.67
2019-05-07T08:19:42.901Z,9.77
2019-05-07T08:22:13.469Z,11.83
2019-05-07T08:24:42.628Z,7.37
2019-05-07T08:27:14.681Z,10.47
2019-05-07T08:29:43.006Z,11.70
2019-05-07T08:32:19.301Z,8.70
2019-05-07T08:34:55.047Z,10.47
2019-05-07T08:37:24.571Z,7.90
2019-05-07T08:39:53.250Z,6.03
2019-05-07T08:42:22.848Z,11.33
2019-05-07T08:44:56.102Z,6.33
2019-05-07T08:47:29.195Z,9.43
2019-05-07T08:49:57.747Z,9.20
2019-05-07T08:52:26.431Z,8.07
2019-05-07T08:54:56.620Z,8.43
2019-05-07T08:57:25.310Z,6.27
2019-05-07T09:00:00.861Z,8.17
2019-05-07T09:02:24.394Z,10.17
2019-05-07T09:04:52.942Z,9.80
2019-05-07T09:07:22.018Z,5.70
2019-05-07T09:09:52.334Z,7.67
2019-05-07T09:12:22.973Z,10.13
2019-05-07T09:14:52.899Z,6.70
2019-05-07T09:17:23.020Z,6.57
2019-05-07T09:19:54.757Z,6.40
2019-05-07T09:22:23.126Z,9.00
2019-05-07T09:24:52.616Z,8.93
2019-05-07T09:27:23.306Z,10.93
2019-05-07T09:29:56.235Z,9.83
2019-05-07T09:32:26.666Z,10.50
2019-05-07T09:34:57.026Z,4.10
2019-05-07T09:37:32.835Z,6.60
2019-05-07T09:40:02.925Z,8.33
2019-05-07T09:42:33.262Z,6.27
2019-05-07T09:45:02.170Z,7.37
2019-05-07T09:47:32.584Z,5.90
2019-05-07T09:50:07.025Z,7.53
2019-05-07T09:52:32.127Z,4.83
2019-05-07T09:55:11.013Z,3.47
2019-05-07T09:57:34.387Z,3.93
2019-05-07T10:00:02.308Z,6.83
2019-05-07T10:02:32.041Z,6.27
2019-05-07T10:05:02.387Z,5.00
2019-05-07T10:07:32.498Z,3.27
2019-05-07T10:10:03.248Z,7.97
2019-05-07T10:12:39.463Z,5.80
2019-05-07T10:15:08.423Z,5.73
2019-05-07T10:17:44.768Z,6.43
2019-05-07T10:20:21.847Z,7.60
2019-05-07T10:22:45.086Z,10.83
2019-05-07T10:25:14.118Z,5.10
2019-05-07T10:27:42.841Z,13.17
2019-05-07T10:30:12.867Z,6.67
2019-05-07T10:32:42.544Z,4.03
2019-05-07T10:35:12.727Z,8.03
2019-05-07T10:37:42.272Z,10.20
2019-05-07T10:40:12.383Z,5.23
2019-05-07T10:42:43.093Z,4.43
2019-05-07T10:45:15.827Z,4.53
2019-05-07T10:47:55.037Z,4.37
2019-05-07T10:50:38.657Z,9.67
2019-05-07T10:53:02.357Z,11.53
2019-05-07T10:55:32.841Z,9.97
2019-05-07T10:58:02.927Z,13.10
2019-05-07T11:00:33.065Z,6.30
2019-05-07T11:03:02.457Z,5.70
2019-05-07T11:05:32.626Z,7.90
2019-05-07T11:08:02.250Z,2.80
2019-05-07T11:10:32.607Z,4.50
2019-05-07T11:13:02.293Z,7.07
2019-05-07T11:15:32.640Z,4.07
2019-05-07T11:18:09.463Z,7.20
2019-05-07T11:20:47.368Z,5.80
2019-05-07T11:23:08.521Z,5.40
2019-05-07T11:25:37.202Z,6.27
2019-05-07T11:28:05.891Z,6.20
2019-05-07T11:30:34.534Z,6.63
2019-05-07T11:33:03.142Z,7.00
2019-05-07T11:35:31.993Z,11.30
2019-05-07T11:38:03.791Z,4.03
2019-05-07T11:40:32.206Z,3.10
2019-05-07T11:43:05.678Z,3.30
2019-05-07T11:45:54.165Z,3.43
2019-05-07T11:48:23.678Z,4.40
2019-05-07T11:51:01.450Z,4.47
2019-05-07T11:53:25.840Z,3.83
2019-05-07T11:55:54.412Z,8.07
2019-05-07T11:58:23.027Z,5.40
2019-05-07T12:00:58.739Z,5.77
2019-05-07T12:03:27.429Z,3.47
2019-05-07T12:05:55.977Z,5.50
2019-05-07T12:08:37.427Z,6.23
2019-05-07T12:10:54.883Z,5.47
2019-05-07T12:13:23.499Z,6.33
2019-05-07T12:15:52.376Z,4.70
2019-05-07T12:18:22.664Z,7.10
2019-05-07T12:20:53.902Z,4.83
2019-05-07T12:23:22.602Z,7.10
2019-05-07T12:25:52.903Z,5.13
2019-05-07T12:28:22.499Z,3.07
2019-05-07T12:31:01.582Z,3.87
2019-05-07T12:33:46.675Z,4.63
2019-05-07T12:36:16.257Z,5.63
2019-05-07T12:38:44.883Z,5.20
2019-05-07T12:41:33.926Z,5.37
2019-05-07T12:44:04.170Z,5.23
2019-05-07T12:46:33.754Z,6.43
2019-05-07T12:49:03.289Z,3.33
2019-05-07T12:51:37.520Z,7.50
2019-05-07T12:54:08.537Z,8.50
2019-05-07T12:56:37.224Z,6.97
2019-05-07T12:59:05.934Z,5.70
2019-05-07T13:01:38.925Z,4.10
2019-05-07T13:04:09.110Z,4.33
2019-05-07T13:06:42.187Z,6.00
2019-05-07T13:09:12.590Z,4.97
2019-05-07T13:11:42.511Z,5.20
2019-05-07T13:14:12.565Z,5.03
2019-05-07T13:16:42.226Z,4.20
2019-05-07T13:19:13.071Z,4.40
2019-05-07T13:21:47.436Z,4.27
2019-05-07T13:24:11.694Z,5.20
2019-05-07T13:26:42.741Z,5.57
2019-05-07T13:29:12.817Z,4.73
2019-05-07T13:31:42.523Z,3.83
2019-05-07T13:34:12.214Z,6.60
2019-05-07T13:36:42.955Z,6.33
2019-05-07T13:39:16.409Z,8.27
2019-05-07T13:41:46.757Z,4.50
2019-05-07T13:44:23.358Z,4.50
2019-05-07T13:46:54.415Z,6.10
2019-05-07T13:49:23.303Z,7.13
2019-05-07T13:52:03.115Z,6.13
2019-05-07T13:54:22.634Z,6.80
2019-05-07T13:56:52.513Z,4.27
2019-05-07T13:59:22.368Z,5.57
2019-05-07T14:01:53.570Z,7.23
2019-05-07T14:04:22.357Z,3.57
2019-05-07T14:06:52.836Z,7.03
2019-05-07T14:09:24.316Z,3.70
2019-05-07T14:11:53.274Z,4.67
2019-05-07T14:14:22.594Z,4.93
2019-05-07T14:16:52.955Z,3.53
2019-05-07T14:19:22.419Z,6.00
2019-05-07T14:21:52.521Z,1.90
2019-05-07T14:24:22.450Z,5.00
2019-05-07T14:26:52.746Z,5.50
2019-05-07T14:29:24.461Z,5.10
2019-05-07T14:31:53.425Z,4.40
2019-05-07T14:34:34.929Z,3.90
2019-05-07T14:37:13.351Z,3.17
2019-05-07T14:39:42.538Z,4.80
2019-05-07T14:42:12.980Z,5.10
2019-05-07T14:44:49.854Z,5.63
2019-05-07T14:47:19.439Z,7.60
2019-05-07T14:49:48.522Z,6.10
2019-05-07T14:52:29.174Z,3.47
2019-05-07T14:54:47.666Z,5.73
2019-05-07T14:57:16.354Z,3.33
2019-05-07T14:59:45.067Z,4.07
2019-05-07T15:02:13.754Z,8.20
2019-05-07T15:04:42.578Z,7.03
2019-05-07T15:07:12.011Z,5.20
2019-05-07T15:09:42.436Z,3.43
2019-05-07T15:12:14.453Z,4.07
2019-05-07T15:14:42.183Z,4.43
2019-05-07T15:17:24.886Z,6.33
2019-05-07T15:19:53.531Z,6.47
2019-05-07T15:22:46.239Z,4.90
2019-05-07T15:25:07.272Z,4.87
2019-05-07T15:27:36.854Z,5.30
2019-05-07T15:30:05.914Z,7.50
2019-05-07T15:32:34.600Z,4.53
2019-05-07T15:35:06.926Z,3.10
2019-05-07T15:37:35.498Z,5.87
2019-05-07T15:40:06.498Z,9.13
2019-05-07T15:42:35.178Z,5.60
2019-05-07T15:45:04.426Z,5.00
2019-05-07T15:47:37.482Z,4.07
2019-05-07T15:50:07.170Z,5.20
2019-05-07T15:52:58.486Z,3.97
2019-05-07T15:55:23.013Z,7.00
2019-05-07T15:57:52.251Z,3.23
2019-05-07T16:00:23.174Z,7.50
2019-05-07T16:02:56.658Z,5.43
2019-05-07T16:05:25.338Z,6.50
2019-05-07T16:07:54.090Z,4.90
2019-05-07T16:10:23.257Z,9.03
2019-05-07T16:12:53.166Z,3.63
2019-05-07T16:15:22.500Z,6.40
2019-05-07T16:17:55.905Z,6.30
2019-05-07T16:20:24.594Z,5.83
2019-05-07T16:22:55.065Z,7.57
2019-05-07T16:25:23.663Z,9.57
2019-05-07T16:27:52.736Z,5.33
2019-05-07T16:30:22.840Z,9.07
2019-05-07T16:32:55.110Z,7.37
2019-05-07T16:35:22.753Z,6.17
2019-05-07T16:37:52.221Z,8.73
2019-05-07T16:40:22.977Z,6.77
2019-05-07T16:42:52.445Z,9.07
2019-05-07T16:45:21.445Z,10.83
2019-05-07T16:47:51.989Z,8.53
2019-05-07T16:50:22.347Z,9.03
2019-05-07T16:52:52.381Z,8.07
2019-05-07T16:55:22.492Z,8.73
2019-05-07T16:58:01.945Z,8.63
2019-05-07T17:00:42.280Z,5.83
2019-05-07T17:03:12.623Z,7.20
2019-05-07T17:05:42.942Z,9.47
2019-05-07T17:08:13.297Z,4.87
2019-05-07T17:10:42.404Z,11.47
2019-05-07T17:13:12.521Z,11.93
2019-05-07T17:15:59.357Z,23.13
2019-05-07T17:18:28.646Z,11.20
2019-05-07T17:20:58.554Z,4.67
2019-05-07T17:23:34.393Z,6.53
2019-05-07T17:25:57.550Z,5.70
2019-05-07T17:28:27.690Z,6.07
2019-05-07T17:30:56.230Z,11.20
2019-05-07T17:33:24.776Z,10.07
2019-05-07T17:35:53.719Z,12.30
2019-05-07T17:38:23.047Z,23.53
2019-05-07T17:40:52.294Z,27.60
2019-05-07T17:43:22.000Z,18.83
2019-05-07T17:45:52.361Z,14.80
2019-05-07T17:48:23.051Z,13.53
2019-05-07T17:51:08.288Z,14.70
2019-05-07T17:53:37.301Z,13.60
2019-05-07T17:56:05.920Z,13.90
2019-05-07T17:58:34.469Z,11.27
2019-05-07T18:01:04.279Z,12.63
2019-05-07T18:03:34.535Z,15.63
2019-05-07T18:06:03.990Z,30.83
2019-05-07T18:08:32.924Z,19.13
2019-05-07T18:11:02.346Z,15.97
2019-05-07T18:13:32.856Z,29.43
2019-05-07T18:16:05.921Z,48.87
2019-05-07T18:18:34.489Z,59.20
2019-05-07T18:21:05.231Z,89.83
2019-05-07T18:23:34.321Z,77.20
2019-05-07T18:26:03.619Z,97.77
2019-05-07T18:28:34.013Z,108.07
2019-05-07T18:31:02.880Z,126.37
2019-05-07T18:33:35.632Z,108.10
2019-05-07T18:36:05.453Z,100.70
2019-05-07T18:38:34.057Z,105.53
2019-05-07T18:41:02.928Z,110.80
2019-05-07T18:43:33.133Z,104.07
2019-05-07T18:46:02.329Z,107.00
2019-05-07T18:48:31.136Z,100.77
2019-05-07T18:50:59.953Z,85.40
2019-05-07T18:53:28.502Z,71.43
2019-05-07T18:55:57.083Z,52.67
2019-05-07T18:58:25.773Z,39.33
2019-05-07T19:01:02.665Z,31.47
2019-05-07T19:03:32.504Z,23.53
2019-05-07T19:06:02.802Z,23.10
2019-05-07T19:08:32.698Z,29.03
2019-05-07T19:11:01.738Z,32.47
2019-05-07T19:13:32.475Z,30.10
2019-05-07T19:16:02.853Z,27.90
2019-05-07T19:18:32.183Z,28.57
2019-05-07T19:21:00.939Z,21.63
2019-05-07T19:23:29.485Z,19.07
2019-05-07T19:25:58.301Z,23.67
2019-05-07T19:28:26.838Z,18.77
2019-05-07T19:30:55.518Z,19.30
2019-05-07T19:33:27.008Z,20.53
2019-05-07T19:35:54.554Z,20.70
2019-05-07T19:38:23.175Z,32.50
2019-05-07T19:40:52.842Z,36.13
2019-05-07T19:43:21.575Z,59.27
2019-05-07T19:45:52.246Z,132.80
2019-05-07T19:48:22.934Z,141.87
2019-05-07T19:50:52.717Z,151.83
2019-05-07T19:53:23.298Z,241.03
2019-05-07T19:56:08.382Z,365.70
2019-05-07T19:58:37.003Z,346.37
2019-05-07T20:01:07.187Z,316.13
2019-05-07T20:03:35.974Z,341.23
2019-05-07T20:06:04.676Z,313.17
2019-05-07T20:08:33.299Z,287.27
2019-05-07T20:11:06.796Z,282.63
2019-05-07T20:13:35.422Z,253.77
2019-05-07T20:16:05.687Z,229.57
2019-05-07T20:18:34.334Z,220.73
2019-05-07T20:21:03.030Z,214.50
2019-05-07T20:23:32.695Z,194.10
2019-05-07T20:26:03.033Z,152.73
2019-05-07T20:28:32.591Z,143.43
2019-05-07T20:31:01.491Z,138.30
2019-05-07T20:33:32.533Z,139.13
2019-05-07T20:36:02.522Z,159.90
2019-05-07T20:38:32.068Z,179.53
2019-05-07T20:41:02.128Z,202.50
2019-05-07T20:43:52.302Z,226.73
2019-05-07T20:46:20.890Z,250.43
2019-05-07T20:48:49.620Z,281.67
2019-05-07T20:51:18.246Z,269.37
2019-05-07T20:53:54.264Z,284.07
2019-05-07T20:56:24.451Z,294.20
2019-05-07T20:58:53.182Z,282.67
2019-05-07T21:01:22.131Z,272.20
2019-05-07T21:03:52.570Z,272.23
2019-05-07T21:06:22.477Z,260.33
2019-05-07T21:08:51.348Z,259.77
2019-05-07T21:11:20.066Z,255.83
2019-05-07T21:13:48.611Z,251.57
2019-05-07T21:16:17.345Z,254.93
2019-05-07T21:18:45.966Z,264.70
2019-05-07T21:21:14.657Z,310.13
2019-05-07T21:23:44.781Z,299.03
2019-05-07T21:26:13.442Z,289.47
2019-05-07T21:28:43.164Z,267.97
2019-05-07T21:31:12.152Z,291.33
2019-05-07T21:33:42.816Z,312.50
2019-05-07T21:36:12.087Z,306.43
2019-05-07T21:38:42.510Z,310.50
2019-05-07T21:41:12.839Z,274.23
2019-05-07T21:43:45.588Z,291.17
2019-05-07T21:46:12.760Z,531.20
2019-05-07T21:48:43.826Z,434.40
2019-05-07T21:51:12.450Z,429.90
2019-05-07T21:53:45.604Z,477.77
2019-05-07T21:56:33.718Z,530.27
2019-05-07T21:59:04.077Z,769.73
2019-05-07T22:01:37.626Z,675.00
2019-05-07T22:04:06.323Z,601.50
2019-05-07T22:06:34.904Z,641.07
2019-05-07T22:09:05.064Z,1121.17
2019-05-07T22:11:33.622Z,1251.50
2019-05-07T22:14:02.338Z,922.10
2019-05-07T22:16:32.841Z,603.60
2019-05-07T22:19:02.602Z,552.20
2019-05-07T22:21:33.900Z,468.07
2019-05-07T22:24:02.817Z,380.77
2019-05-07T22:26:32.336Z,330.37
2019-05-07T22:29:03.158Z,275.47
2019-05-07T22:31:38.767Z,251.00
2019-05-07T22:34:12.823Z,236.33
2019-05-07T22:36:43.162Z,292.60
2019-05-07T22:39:12.616Z,319.47
2019-05-07T22:41:42.471Z,318.80
2019-05-07T22:44:11.993Z,295.37
2019-05-07T22:46:42.124Z,287.73
2019-05-07T22:49:12.288Z,295.00
2019-05-07T22:51:40.996Z,256.30
2019-05-07T22:54:11.701Z,242.53
2019-05-07T22:56:59.282Z,235.20
2019-05-07T22:59:27.906Z,255.20
2019-05-07T23:01:56.466Z,249.73
2019-05-07T23:04:25.046Z,226.90
2019-05-07T23:06:53.612Z,255.70
2019-05-07T23:09:22.512Z,310.83
2019-05-07T23:11:52.593Z,297.97
2019-05-07T23:14:22.670Z,264.17
2019-05-07T23:16:52.625Z,241.10
2019-05-07T23:19:22.253Z,269.63
2019-05-07T23:21:52.140Z,274.10
2019-05-07T23:24:22.683Z,170.37
2019-05-07T23:26:53.535Z,126.77
2019-05-07T23:29:22.443Z,125.03
2019-05-07T23:31:52.790Z,146.77
2019-05-07T23:34:22.125Z,222.87
2019-05-07T23:36:53.121Z,275.60
2019-05-07T23:39:22.843Z,212.23
2019-05-07T23:42:08.414Z,263.43
2019-05-07T23:44:36.965Z,412.77
2019-05-07T23:47:05.666Z,404.90
2019-05-07T23:49:34.408Z,311.47
2019-05-07T23:52:03.099Z,259.83
2019-05-07T23:54:31.997Z,268.93
2019-05-07T23:57:07.056Z,245.13
2019-05-07T23:59:32.845Z,357.33
